createdAt,value
2023-01-26T00:02:19.266Z,12.80
2023-01-26T00:07:22.642Z,12.63
2023-01-26T00:12:26.100Z,13.83
2023-01-26T00:17:30.830Z,14.35
2023-01-26T00:22:34.182Z,14.63
2023-01-26T00:27:37.620Z,13.85
2023-01-26T00:32:42.422Z,12.85
2023-01-26T00:37:46.212Z,13.38
2023-01-26T00:42:53.261Z,13.60
2023-01-26T00:47:58.079Z,13.90
2023-01-26T00:53:01.630Z,14.53
2023-01-26T00:58:06.661Z,14.27
2023-01-26T01:03:11.401Z,14.88
2023-01-26T01:08:14.824Z,15.67
2023-01-26T01:13:18.197Z,14.45
2023-01-26T01:18:23.051Z,15.20
2023-01-26T01:23:28.984Z,14.48
2023-01-26T01:28:33.364Z,15.00
2023-01-26T01:33:38.362Z,13.75
2023-01-26T01:38:42.966Z,14.20
2023-01-26T01:43:46.814Z,13.83
2023-01-26T01:48:59.930Z,14.70
2023-01-26T01:54:07.664Z,14.97
2023-01-26T01:59:12.812Z,15.00
2023-01-26T02:04:17.916Z,14.93
2023-01-26T02:09:45.007Z,15.30
2023-01-26T02:14:48.723Z,15.83
2023-01-26T02:20:02.504Z,15.15
2023-01-26T02:25:13.732Z,14.83
2023-01-26T02:30:19.776Z,15.90
2023-01-26T02:35:23.254Z,15.98
2023-01-26T02:40:33.815Z,14.93
2023-01-26T02:45:41.300Z,14.53
2023-01-26T02:50:44.876Z,16.05
2023-01-26T02:55:48.374Z,14.67
2023-01-26T03:00:53.313Z,14.10
2023-01-26T03:05:56.671Z,13.85
2023-01-26T03:11:00.153Z,19.42
2023-01-26T03:16:08.546Z,17.00
2023-01-26T03:21:32.339Z,16.20
2023-01-26T03:26:54.208Z,13.90
2023-01-26T03:32:00.196Z,13.83
2023-01-26T03:37:04.355Z,16.98
2023-01-26T03:42:48.289Z,15.70
2023-01-26T03:48:11.329Z,15.03
2023-01-26T03:53:34.289Z,15.65
2023-01-26T03:58:37.873Z,15.15
2023-01-26T04:03:59.722Z,13.95
2023-01-26T04:09:03.326Z,12.50
2023-01-26T04:14:24.434Z,13.70
2023-01-26T04:19:46.687Z,13.93
2023-01-26T04:24:50.919Z,14.57
2023-01-26T04:29:54.230Z,14.65
2023-01-26T04:34:59.481Z,14.70
2023-01-26T04:40:05.521Z,13.57
2023-01-26T04:45:12.743Z,15.15
2023-01-26T04:50:18.336Z,15.70
2023-01-26T04:55:23.057Z,14.97
2023-01-26T05:00:26.508Z,16.00
2023-01-26T05:05:32.236Z,16.10
2023-01-26T05:10:36.807Z,16.60
2023-01-26T05:15:55.068Z,16.10
2023-01-26T05:21:18.355Z,15.15
2023-01-26T05:26:26.275Z,14.10
2023-01-26T05:32:17.790Z,14.90
2023-01-26T05:37:25.201Z,15.73
2023-01-26T05:42:29.222Z,14.52
2023-01-26T05:47:57.939Z,14.77
2023-01-26T05:53:03.254Z,14.65
2023-01-26T05:58:08.010Z,14.93
2023-01-26T06:03:11.433Z,14.07
2023-01-26T06:08:16.248Z,15.77
2023-01-26T06:13:38.236Z,15.33
2023-01-26T06:18:53.481Z,14.47
2023-01-26T06:23:59.018Z,12.87
2023-01-26T06:29:02.710Z,15.52
2023-01-26T06:34:10.788Z,13.87
2023-01-26T06:39:18.617Z,13.48
2023-01-26T06:44:22.163Z,12.68
2023-01-26T06:49:25.702Z,12.40
2023-01-26T06:54:30.390Z,12.52
2023-01-26T07:00:11.151Z,13.40
2023-01-26T07:05:31.773Z,10.00
2023-01-26T07:10:36.788Z,13.25
2023-01-26T07:15:40.063Z,11.40
2023-01-26T07:20:43.324Z,11.73
2023-01-26T07:25:47.987Z,11.15
2023-01-26T07:30:51.249Z,12.45
2023-01-26T07:35:54.995Z,11.60
2023-01-26T07:40:59.690Z,10.95
2023-01-26T07:46:03.169Z,10.35
2023-01-26T07:51:08.564Z,10.23
2023-01-26T07:56:16.006Z,10.52
2023-01-26T08:01:20.084Z,9.80
2023-01-26T08:06:25.030Z,10.30
2023-01-26T08:11:29.980Z,10.27
2023-01-26T08:16:33.302Z,9.90
2023-01-26T08:21:36.652Z,10.30
2023-01-26T08:26:41.346Z,9.80
2023-01-26T08:31:44.914Z,10.45
2023-01-26T08:36:48.221Z,8.50
2023-01-26T08:41:55.519Z,8.77
2023-01-26T08:46:58.801Z,9.43
2023-01-26T08:52:02.115Z,9.00
2023-01-26T08:57:06.835Z,10.30
2023-01-26T09:02:10.826Z,10.27
2023-01-26T09:07:14.165Z,12.50
2023-01-26T09:12:18.826Z,12.60
2023-01-26T09:17:22.090Z,11.17
2023-01-26T09:22:25.351Z,9.97
2023-01-26T09:27:30.084Z,11.10
2023-01-26T09:32:33.432Z,11.17
2023-01-26T09:37:36.795Z,11.63
2023-01-26T09:42:50.831Z,9.77
2023-01-26T09:48:05.660Z,9.38
2023-01-26T09:53:16.113Z,8.00
2023-01-26T09:58:29.464Z,8.90
2023-01-26T10:03:38.206Z,9.70
2023-01-26T10:08:43.181Z,9.32
2023-01-26T10:13:52.914Z,8.23
2023-01-26T10:19:01.548Z,8.63
2023-01-26T10:24:05.938Z,10.63
2023-01-26T10:29:16.779Z,12.50
2023-01-26T10:34:25.087Z,7.50
2023-01-26T10:39:28.379Z,8.13
2023-01-26T10:44:36.476Z,7.20
2023-01-26T10:49:39.755Z,6.70
2023-01-26T10:54:44.794Z,7.55
2023-01-26T10:59:56.311Z,6.80
2023-01-26T11:05:18.221Z,7.87
2023-01-26T11:10:25.927Z,6.03
2023-01-26T11:15:31.880Z,5.80
2023-01-26T11:21:01.142Z,5.93
2023-01-26T11:26:22.247Z,5.97
2023-01-26T11:31:39.472Z,7.82
2023-01-26T11:36:53.851Z,6.28
2023-01-26T11:42:12.037Z,6.40
2023-01-26T11:47:32.534Z,6.27
2023-01-26T11:52:47.383Z,6.07
2023-01-26T11:58:02.807Z,7.18
2023-01-26T12:03:16.748Z,7.05
2023-01-26T12:08:25.298Z,7.88
2023-01-26T12:13:36.490Z,8.80
2023-01-26T12:18:58.758Z,8.23
2023-01-26T12:24:43.535Z,8.83
2023-01-26T12:29:46.626Z,8.43
2023-01-26T12:34:51.423Z,9.23
2023-01-26T12:40:03.522Z,8.55
2023-01-26T12:45:11.263Z,8.68
2023-01-26T12:50:24.446Z,8.57
2023-01-26T12:55:31.691Z,9.77
2023-01-26T13:00:37.046Z,8.40
2023-01-26T13:05:57.351Z,8.00
2023-01-26T13:11:04.323Z,8.05
2023-01-26T13:16:35.537Z,7.60
2023-01-26T13:21:45.714Z,7.50
2023-01-26T13:26:50.762Z,8.45
2023-01-26T13:31:55.509Z,9.30
2023-01-26T13:37:10.099Z,7.82
2023-01-26T13:42:20.365Z,8.47
2023-01-26T13:47:29.345Z,5.77
2023-01-26T13:52:34.059Z,6.57
2023-01-26T13:57:37.442Z,5.90
2023-01-26T14:02:41.505Z,6.85
2023-01-26T14:07:47.689Z,6.87
2023-01-26T14:12:56.648Z,7.40
2023-01-26T14:18:02.041Z,6.90
2023-01-26T14:23:14.663Z,6.57
2023-01-26T14:28:29.340Z,6.57
2023-01-26T14:33:32.833Z,6.75
2023-01-26T14:38:44.810Z,7.30
2023-01-26T14:43:50.474Z,5.50
2023-01-26T14:48:59.933Z,6.13
2023-01-26T14:54:10.869Z,6.50
2023-01-26T14:59:23.335Z,6.20
2023-01-26T15:04:33.260Z,6.07
2023-01-26T15:09:37.957Z,5.30
2023-01-26T15:14:50.672Z,6.00
2023-01-26T15:19:54.010Z,5.60
2023-01-26T15:25:04.584Z,5.63
2023-01-26T15:30:17.100Z,5.38
2023-01-26T15:35:24.142Z,5.72
2023-01-26T15:40:29.305Z,4.90
2023-01-26T15:45:34.972Z,4.87
2023-01-26T15:50:38.314Z,5.18
2023-01-26T15:55:44.247Z,6.00
2023-01-26T16:00:47.738Z,5.80
2023-01-26T16:05:51.226Z,6.00
2023-01-26T16:10:57.044Z,5.70
2023-01-26T16:16:00.408Z,5.47
2023-01-26T16:21:12.031Z,6.83
2023-01-26T16:26:19.140Z,7.38
2023-01-26T16:31:24.890Z,6.10
2023-01-26T16:36:28.202Z,5.63
2023-01-26T16:41:33.887Z,6.07
2023-01-26T16:46:37.367Z,5.43
2023-01-26T16:51:41.736Z,5.20
2023-01-26T16:56:46.447Z,6.70
2023-01-26T17:01:49.794Z,6.50
2023-01-26T17:06:53.152Z,6.60
2023-01-26T17:11:57.914Z,6.87
2023-01-26T17:17:01.262Z,7.60
2023-01-26T17:22:04.748Z,8.97
2023-01-26T17:27:10.386Z,7.57
2023-01-26T17:32:13.764Z,8.53
2023-01-26T17:37:17.073Z,8.48
2023-01-26T17:42:22.269Z,8.90
2023-01-26T17:47:25.860Z,8.23
2023-01-26T17:52:31.436Z,7.80
2023-01-26T17:57:36.570Z,7.82
2023-01-26T18:02:40.036Z,8.10
2023-01-26T18:07:43.513Z,7.93
2023-01-26T18:12:48.899Z,8.05
2023-01-26T18:17:52.617Z,8.40
2023-01-26T18:22:55.978Z,8.48
2023-01-26T18:28:00.780Z,9.00
2023-01-26T18:33:04.232Z,9.05
2023-01-26T18:38:07.629Z,10.57
2023-01-26T18:43:12.877Z,8.53
2023-01-26T18:48:16.408Z,8.07
2023-01-26T18:53:19.805Z,8.65
2023-01-26T18:58:24.724Z,9.87
2023-01-26T19:03:28.969Z,8.82
2023-01-26T19:08:34.431Z,10.53
2023-01-26T19:13:42.194Z,10.32
2023-01-26T19:18:45.436Z,8.30
2023-01-26T19:23:48.803Z,9.00
2023-01-26T19:28:55.386Z,9.15
2023-01-26T19:34:00.113Z,8.17
2023-01-26T19:39:04.817Z,8.95
2023-01-26T19:44:09.507Z,8.43
2023-01-26T19:49:13.619Z,8.45
2023-01-26T19:54:17.029Z,8.77
2023-01-26T19:59:22.530Z,9.48
2023-01-26T20:04:26.298Z,10.00
2023-01-26T20:09:34.615Z,9.60
2023-01-26T20:14:39.376Z,9.40
2023-01-26T20:19:42.673Z,9.73
2023-01-26T20:24:45.990Z,10.32
2023-01-26T20:29:51.100Z,9.52
2023-01-26T20:34:54.857Z,9.30
2023-01-26T20:39:58.582Z,9.13
2023-01-26T20:45:03.251Z,10.00
2023-01-26T20:50:08.138Z,9.25
2023-01-26T20:55:13.364Z,9.25
2023-01-26T21:00:19.627Z,9.48
2023-01-26T21:05:22.944Z,9.63
2023-01-26T21:10:26.501Z,9.38
2023-01-26T21:15:31.208Z,9.57
2023-01-26T21:20:34.552Z,11.97
2023-01-26T21:25:37.858Z,10.05
2023-01-26T21:30:42.811Z,12.95
2023-01-26T21:35:46.153Z,10.32
2023-01-26T21:40:49.520Z,10.27
2023-01-26T21:45:57.007Z,9.60
2023-01-26T21:51:18.465Z,10.07
2023-01-26T21:56:22.394Z,10.85
2023-01-26T22:01:28.110Z,10.73
2023-01-26T22:06:32.412Z,10.95
2023-01-26T22:11:35.997Z,10.85
2023-01-26T22:16:41.363Z,13.45
2023-01-26T22:21:44.965Z,14.40
2023-01-26T22:26:48.349Z,11.75
2023-01-26T22:31:53.168Z,11.37
2023-01-26T22:36:56.891Z,12.32
2023-01-26T22:42:00.173Z,17.35
2023-01-26T22:47:05.037Z,12.30
2023-01-26T22:52:08.399Z,11.50
2023-01-26T22:57:11.729Z,11.40
2023-01-26T23:02:16.811Z,10.57
2023-01-26T23:07:20.058Z,10.68
2023-01-26T23:12:23.553Z,10.80
2023-01-26T23:17:28.458Z,10.05
2023-01-26T23:22:31.791Z,9.90
2023-01-26T23:27:35.205Z,10.32
2023-01-26T23:32:40.039Z,9.55
2023-01-26T23:37:43.461Z,9.70
2023-01-26T23:43:03.339Z,9.67
2023-01-26T23:48:11.869Z,9.52
2023-01-26T23:53:15.661Z,9.10
2023-01-26T23:58:19.426Z,9.02
